sensor_id;sensor_type;location;lat;lon;timestamp;temperature;humidity
1786;DHT22;890;48.158;11.540;2023-04-24T00:01:41;12.40;98.50
1786;DHT22;890;48.158;11.540;2023-04-24T00:04:08;12.50;98.60
1786;DHT22;890;48.158;11.540;2023-04-24T00:06:39;12.40;98.60
1786;DHT22;890;48.158;11.540;2023-04-24T00:09:08;12.90;98.50
1786;DHT22;890;48.158;11.540;2023-04-24T00:11:35;12.40;98.20
1786;DHT22;890;48.158;11.540;2023-04-24T00:14:01;13.00;98.60
1786;DHT22;890;48.158;11.540;2023-04-24T00:16:27;12.40;98.20
1786;DHT22;890;48.158;11.540;2023-04-24T00:18:53;12.30;98.00
1786;DHT22;890;48.158;11.540;2023-04-24T00:21:19;12.20;98.10
1786;DHT22;890;48.158;11.540;2023-04-24T00:23:44;12.20;98.20
1786;DHT22;890;48.158;11.540;2023-04-24T00:26:10;12.20;98.30
1786;DHT22;890;48.158;11.540;2023-04-24T00:28:36;12.20;98.30
1786;DHT22;890;48.158;11.540;2023-04-24T00:31:01;12.10;98.10
1786;DHT22;890;48.158;11.540;2023-04-24T00:33:27;12.10;98.40
1786;DHT22;890;48.158;11.540;2023-04-24T00:35:53;12.10;98.50
1786;DHT22;890;48.158;11.540;2023-04-24T00:38:18;12.10;98.40
1786;DHT22;890;48.158;11.540;2023-04-24T00:40:44;13.20;99.00
1786;DHT22;890;48.158;11.540;2023-04-24T00:43:10;12.10;98.40
1786;DHT22;890;48.158;11.540;2023-04-24T00:45:36;12.10;98.40
1786;DHT22;890;48.158;11.540;2023-04-24T00:48:02;12.10;98.30
1786;DHT22;890;48.158;11.540;2023-04-24T00:50:28;12.10;98.10
1786;DHT22;890;48.158;11.540;2023-04-24T00:52:53;12.10;98.10
1786;DHT22;890;48.158;11.540;2023-04-24T00:55:19;12.20;98.00
1786;DHT22;890;48.158;11.540;2023-04-24T00:57:46;12.00;97.80
1786;DHT22;890;48.158;11.540;2023-04-24T01:00:12;12.10;97.90
1786;DHT22;890;48.158;11.540;2023-04-24T01:02:40;12.10;97.70
1786;DHT22;890;48.158;11.540;2023-04-24T01:05:09;12.10;97.60
1786;DHT22;890;48.158;11.540;2023-04-24T01:07:35;12.10;97.70
1786;DHT22;890;48.158;11.540;2023-04-24T01:10:01;12.00;97.50
1786;DHT22;890;48.158;11.540;2023-04-24T01:12:26;12.00;97.60
1786;DHT22;890;48.158;11.540;2023-04-24T01:14:52;12.00;97.40
1786;DHT22;890;48.158;11.540;2023-04-24T01:17:18;12.00;97.50
1786;DHT22;890;48.158;11.540;2023-04-24T01:19:44;12.00;97.30
1786;DHT22;890;48.158;11.540;2023-04-24T01:22:15;12.00;97.20
1786;DHT22;890;48.158;11.540;2023-04-24T01:24:42;12.10;97.10
1786;DHT22;890;48.158;11.540;2023-04-24T01:27:10;12.10;96.90
1786;DHT22;890;48.158;11.540;2023-04-24T01:29:36;12.20;96.70
1786;DHT22;890;48.158;11.540;2023-04-24T01:32:02;12.00;96.20
1786;DHT22;890;48.158;11.540;2023-04-24T01:34:28;12.00;96.50
1786;DHT22;890;48.158;11.540;2023-04-24T01:36:54;12.90;97.20
1786;DHT22;890;48.158;11.540;2023-04-24T01:39:21;12.00;96.60
1786;DHT22;890;48.158;11.540;2023-04-24T01:41:48;12.30;96.60
1786;DHT22;890;48.158;11.540;2023-04-24T01:44:15;12.70;96.60
1786;DHT22;890;48.158;11.540;2023-04-24T01:46:41;12.30;96.20
1786;DHT22;890;48.158;11.540;2023-04-24T01:49:07;12.90;96.40
1786;DHT22;890;48.158;11.540;2023-04-24T01:51:32;12.30;96.20
1786;DHT22;890;48.158;11.540;2023-04-24T01:53:58;12.20;96.10
1786;DHT22;890;48.158;11.540;2023-04-24T01:56:24;12.00;95.70
1786;DHT22;890;48.158;11.540;2023-04-24T01:58:52;12.00;95.60
1786;DHT22;890;48.158;11.540;2023-04-24T02:01:23;12.00;95.60
1786;DHT22;890;48.158;11.540;2023-04-24T02:03:49;12.00;95.30
1786;DHT22;890;48.158;11.540;2023-04-24T02:06:14;12.00;95.30
1786;DHT22;890;48.158;11.540;2023-04-24T02:08:40;12.00;95.20
1786;DHT22;890;48.158;11.540;2023-04-24T02:11:06;11.90;95.20
1786;DHT22;890;48.158;11.540;2023-04-24T02:13:31;11.90;95.30
1786;DHT22;890;48.158;11.540;2023-04-24T02:15:58;11.90;95.30
1786;DHT22;890;48.158;11.540;2023-04-24T02:18:24;11.80;95.20
1786;DHT22;890;48.158;11.540;2023-04-24T02:20:49;11.90;95.20
1786;DHT22;890;48.158;11.540;2023-04-24T02:23:15;11.90;95.20
1786;DHT22;890;48.158;11.540;2023-04-24T02:25:41;11.90;95.10
1786;DHT22;890;48.158;11.540;2023-04-24T02:28:06;10.80;94.50
1786;DHT22;890;48.158;11.540;2023-04-24T02:30:32;11.80;94.90
1786;DHT22;890;48.158;11.540;2023-04-24T02:32:57;11.80;94.90
1786;DHT22;890;48.158;11.540;2023-04-24T02:35:23;11.80;94.80
1786;DHT22;890;48.158;11.540;2023-04-24T02:37:49;11.80;94.80
1786;DHT22;890;48.158;11.540;2023-04-24T02:40:14;11.70;94.80
1786;DHT22;890;48.158;11.540;2023-04-24T02:42:40;11.80;94.70
1786;DHT22;890;48.158;11.540;2023-04-24T02:45:06;11.70;94.80
1786;DHT22;890;48.158;11.540;2023-04-24T02:47:32;11.80;95.00
1786;DHT22;890;48.158;11.540;2023-04-24T02:49:57;11.80;94.90
1786;DHT22;890;48.158;11.540;2023-04-24T02:52:23;11.90;94.90
1786;DHT22;890;48.158;11.540;2023-04-24T02:54:49;11.80;94.90
1786;DHT22;890;48.158;11.540;2023-04-24T02:57:14;12.00;94.90
1786;DHT22;890;48.158;11.540;2023-04-24T02:59:40;11.80;95.00
1786;DHT22;890;48.158;11.540;2023-04-24T03:02:06;11.80;94.70
1786;DHT22;890;48.158;11.540;2023-04-24T03:04:31;11.70;94.70
1786;DHT22;890;48.158;11.540;2023-04-24T03:06:57;11.60;94.80
1786;DHT22;890;48.158;11.540;2023-04-24T03:09:24;12.30;95.40
1786;DHT22;890;48.158;11.540;2023-04-24T03:11:49;11.70;95.20
1786;DHT22;890;48.158;11.540;2023-04-24T03:14:16;11.70;95.10
1786;DHT22;890;48.158;11.540;2023-04-24T03:16:42;11.80;95.00
1786;DHT22;890;48.158;11.540;2023-04-24T03:19:08;11.80;95.00
1786;DHT22;890;48.158;11.540;2023-04-24T03:21:33;11.90;95.10
1786;DHT22;890;48.158;11.540;2023-04-24T03:24:00;11.60;95.10
1786;DHT22;890;48.158;11.540;2023-04-24T03:26:26;11.60;95.20
1786;DHT22;890;48.158;11.540;2023-04-24T03:28:52;11.60;95.20
1786;DHT22;890;48.158;11.540;2023-04-24T03:31:17;11.50;95.40
1786;DHT22;890;48.158;11.540;2023-04-24T03:33:44;11.50;95.70
1786;DHT22;890;48.158;11.540;2023-04-24T03:36:09;11.60;95.90
1786;DHT22;890;48.158;11.540;2023-04-24T03:38:35;11.60;95.90
1786;DHT22;890;48.158;11.540;2023-04-24T03:41:00;11.60;95.90
1786;DHT22;890;48.158;11.540;2023-04-24T03:43:27;11.70;95.90
1786;DHT22;890;48.158;11.540;2023-04-24T03:45:52;11.70;96.00
1786;DHT22;890;48.158;11.540;2023-04-24T03:48:18;11.60;95.80
1786;DHT22;890;48.158;11.540;2023-04-24T03:50:44;11.60;96.00
1786;DHT22;890;48.158;11.540;2023-04-24T03:53:09;12.40;96.70
1786;DHT22;890;48.158;11.540;2023-04-24T03:55:35;11.50;96.30
1786;DHT22;890;48.158;11.540;2023-04-24T03:58:00;12.10;96.70
1786;DHT22;890;48.158;11.540;2023-04-24T04:00:26;11.50;96.60
1786;DHT22;890;48.158;11.540;2023-04-24T04:02:51;11.50;96.90
1786;DHT22;890;48.158;11.540;2023-04-24T04:05:17;11.60;96.60
1786;DHT22;890;48.158;11.540;2023-04-24T04:07:43;11.60;96.70
1786;DHT22;890;48.158;11.540;2023-04-24T04:10:08;11.50;96.50
1786;DHT22;890;48.158;11.540;2023-04-24T04:12:34;11.50;96.50
1786;DHT22;890;48.158;11.540;2023-04-24T04:14:59;11.40;96.60
1786;DHT22;890;48.158;11.540;2023-04-24T04:17:25;11.80;96.80
1786;DHT22;890;48.158;11.540;2023-04-24T04:19:51;11.30;96.60
1786;DHT22;890;48.158;11.540;2023-04-24T04:22:16;11.30;96.70
1786;DHT22;890;48.158;11.540;2023-04-24T04:24:42;11.30;96.80
1786;DHT22;890;48.158;11.540;2023-04-24T04:27:08;11.30;96.80
1786;DHT22;890;48.158;11.540;2023-04-24T04:29:34;11.30;96.90
1786;DHT22;890;48.158;11.540;2023-04-24T04:32:00;11.40;96.90
1786;DHT22;890;48.158;11.540;2023-04-24T04:34:26;11.40;97.00
1786;DHT22;890;48.158;11.540;2023-04-24T04:36:52;11.40;96.90
1786;DHT22;890;48.158;11.540;2023-04-24T04:39:17;11.50;96.90
1786;DHT22;890;48.158;11.540;2023-04-24T04:41:44;11.50;96.80
1786;DHT22;890;48.158;11.540;2023-04-24T04:44:11;11.80;96.80
1786;DHT22;890;48.158;11.540;2023-04-24T04:46:38;11.50;96.70
1786;DHT22;890;48.158;11.540;2023-04-24T04:49:03;11.50;96.60
1786;DHT22;890;48.158;11.540;2023-04-24T04:51:29;11.50;96.60
1786;DHT22;890;48.158;11.540;2023-04-24T04:53:56;11.50;96.60
1786;DHT22;890;48.158;11.540;2023-04-24T04:56:21;11.60;96.60
1786;DHT22;890;48.158;11.540;2023-04-24T04:58:47;11.60;96.40
1786;DHT22;890;48.158;11.540;2023-04-24T05:01:13;11.50;96.20
1786;DHT22;890;48.158;11.540;2023-04-24T05:03:38;11.50;96.40
1786;DHT22;890;48.158;11.540;2023-04-24T05:06:04;11.50;96.50
1786;DHT22;890;48.158;11.540;2023-04-24T05:08:30;11.50;96.60
1786;DHT22;890;48.158;11.540;2023-04-24T05:10:56;11.70;96.60
1786;DHT22;890;48.158;11.540;2023-04-24T05:13:21;11.60;96.30
1786;DHT22;890;48.158;11.540;2023-04-24T05:15:47;11.70;96.10
1786;DHT22;890;48.158;11.540;2023-04-24T05:18:12;11.70;96.10
1786;DHT22;890;48.158;11.540;2023-04-24T05:20:38;11.70;96.10
1786;DHT22;890;48.158;11.540;2023-04-24T05:23:04;11.80;96.00
1786;DHT22;890;48.158;11.540;2023-04-24T05:25:29;11.80;95.90
1786;DHT22;890;48.158;11.540;2023-04-24T05:28:00;11.90;95.90
1786;DHT22;890;48.158;11.540;2023-04-24T05:30:26;11.90;95.60
1786;DHT22;890;48.158;11.540;2023-04-24T05:32:51;11.90;95.50
1786;DHT22;890;48.158;11.540;2023-04-24T05:35:17;11.90;95.40
1786;DHT22;890;48.158;11.540;2023-04-24T05:37:44;11.90;95.30
1786;DHT22;890;48.158;11.540;2023-04-24T05:40:10;11.90;95.20
1786;DHT22;890;48.158;11.540;2023-04-24T05:42:36;11.90;95.20
1786;DHT22;890;48.158;11.540;2023-04-24T05:45:02;11.90;95.10
1786;DHT22;890;48.158;11.540;2023-04-24T05:47:28;11.90;95.10
1786;DHT22;890;48.158;11.540;2023-04-24T05:49:53;11.90;95.10
1786;DHT22;890;48.158;11.540;2023-04-24T05:52:19;11.90;94.90
1786;DHT22;890;48.158;11.540;2023-04-24T05:54:44;12.00;94.80
1786;DHT22;890;48.158;11.540;2023-04-24T05:57:10;12.00;94.50
1786;DHT22;890;48.158;11.540;2023-04-24T05:59:37;12.00;94.60
1786;DHT22;890;48.158;11.540;2023-04-24T06:02:04;12.10;94.50
1786;DHT22;890;48.158;11.540;2023-04-24T06:04:29;12.10;94.40
1786;DHT22;890;48.158;11.540;2023-04-24T06:06:55;12.10;94.40
1786;DHT22;890;48.158;11.540;2023-04-24T06:09:25;12.10;94.40
1786;DHT22;890;48.158;11.540;2023-04-24T06:11:51;12.30;94.40
1786;DHT22;890;48.158;11.540;2023-04-24T06:14:18;12.50;94.60
1786;DHT22;890;48.158;11.540;2023-04-24T06:16:44;12.80;94.40
1786;DHT22;890;48.158;11.540;2023-04-24T06:19:10;12.60;94.60
1786;DHT22;890;48.158;11.540;2023-04-24T06:21:35;12.70;94.10
1786;DHT22;890;48.158;11.540;2023-04-24T06:24:01;12.70;93.70
1786;DHT22;890;48.158;11.540;2023-04-24T06:26:27;13.30;93.70
1786;DHT22;890;48.158;11.540;2023-04-24T06:28:53;12.60;93.20
1786;DHT22;890;48.158;11.540;2023-04-24T06:31:21;12.70;93.10
1786;DHT22;890;48.158;11.540;2023-04-24T06:33:48;12.80;93.10
1786;DHT22;890;48.158;11.540;2023-04-24T06:36:14;12.70;92.90
1786;DHT22;890;48.158;11.540;2023-04-24T06:38:39;12.60;92.70
1786;DHT22;890;48.158;11.540;2023-04-24T06:41:05;13.50;93.10
1786;DHT22;890;48.158;11.540;2023-04-24T06:43:33;12.60;92.50
1786;DHT22;890;48.158;11.540;2023-04-24T06:46:00;12.50;92.40
1786;DHT22;890;48.158;11.540;2023-04-24T06:48:26;12.40;92.30
1786;DHT22;890;48.158;11.540;2023-04-24T06:50:52;12.40;92.30
1786;DHT22;890;48.158;11.540;2023-04-24T06:53:18;12.40;92.40
1786;DHT22;890;48.158;11.540;2023-04-24T06:55:43;12.50;92.50
1786;DHT22;890;48.158;11.540;2023-04-24T06:58:11;12.60;92.40
1786;DHT22;890;48.158;11.540;2023-04-24T07:00:37;12.60;92.00
1786;DHT22;890;48.158;11.540;2023-04-24T07:03:04;12.60;92.00
1786;DHT22;890;48.158;11.540;2023-04-24T07:05:32;12.70;91.90
1786;DHT22;890;48.158;11.540;2023-04-24T07:08:00;12.70;91.60
1786;DHT22;890;48.158;11.540;2023-04-24T07:10:26;13.60;92.00
1786;DHT22;890;48.158;11.540;2023-04-24T07:12:54;12.70;91.30
1786;DHT22;890;48.158;11.540;2023-04-24T07:15:20;12.70;91.10
1786;DHT22;890;48.158;11.540;2023-04-24T07:17:46;12.70;90.90
1786;DHT22;890;48.158;11.540;2023-04-24T07:20:11;12.80;90.80
1786;DHT22;890;48.158;11.540;2023-04-24T07:22:39;12.70;90.50
1786;DHT22;890;48.158;11.540;2023-04-24T07:25:06;12.70;90.30
1786;DHT22;890;48.158;11.540;2023-04-24T07:27:32;12.60;90.10
1786;DHT22;890;48.158;11.540;2023-04-24T07:29:58;12.50;89.90
1786;DHT22;890;48.158;11.540;2023-04-24T07:32:24;12.50;90.20
1786;DHT22;890;48.158;11.540;2023-04-24T07:34:49;12.60;90.70
1786;DHT22;890;48.158;11.540;2023-04-24T07:37:15;12.70;90.30
1786;DHT22;890;48.158;11.540;2023-04-24T07:39:41;12.70;90.00
1786;DHT22;890;48.158;11.540;2023-04-24T07:42:06;12.70;89.00
1786;DHT22;890;48.158;11.540;2023-04-24T07:44:32;12.70;88.60
1786;DHT22;890;48.158;11.540;2023-04-24T07:46:58;12.80;88.60
1786;DHT22;890;48.158;11.540;2023-04-24T07:49:25;12.70;88.30
1786;DHT22;890;48.158;11.540;2023-04-24T07:51:50;12.80;87.90
1786;DHT22;890;48.158;11.540;2023-04-24T07:54:16;13.20;87.90
1786;DHT22;890;48.158;11.540;2023-04-24T07:56:43;12.80;87.10
1786;DHT22;890;48.158;11.540;2023-04-24T07:59:09;12.80;87.00
1786;DHT22;890;48.158;11.540;2023-04-24T08:01:35;12.80;86.80
1786;DHT22;890;48.158;11.540;2023-04-24T08:04:01;12.80;86.70
1786;DHT22;890;48.158;11.540;2023-04-24T08:06:27;12.80;86.80
1786;DHT22;890;48.158;11.540;2023-04-24T08:08:56;12.80;86.80
1786;DHT22;890;48.158;11.540;2023-04-24T08:11:21;12.80;86.50
1786;DHT22;890;48.158;11.540;2023-04-24T08:13:47;12.90;86.50
1786;DHT22;890;48.158;11.540;2023-04-24T08:16:13;12.90;86.10
1786;DHT22;890;48.158;11.540;2023-04-24T08:18:38;12.90;85.70
1786;DHT22;890;48.158;11.540;2023-04-24T08:21:04;12.90;85.30
1786;DHT22;890;48.158;11.540;2023-04-24T08:23:30;12.80;85.20
1786;DHT22;890;48.158;11.540;2023-04-24T08:25:55;12.80;84.90
1786;DHT22;890;48.158;11.540;2023-04-24T08:28:22;12.70;84.80
1786;DHT22;890;48.158;11.540;2023-04-24T08:30:47;12.60;85.10
1786;DHT22;890;48.158;11.540;2023-04-24T08:33:14;12.60;85.90
1786;DHT22;890;48.158;11.540;2023-04-24T08:35:39;12.40;86.90
1786;DHT22;890;48.158;11.540;2023-04-24T08:38:05;12.20;88.00
1786;DHT22;890;48.158;11.540;2023-04-24T08:40:34;11.70;90.00
1786;DHT22;890;48.158;11.540;2023-04-24T08:43:00;11.20;91.20
1786;DHT22;890;48.158;11.540;2023-04-24T08:45:26;11.10;92.00
1786;DHT22;890;48.158;11.540;2023-04-24T08:47:52;11.10;92.30
1786;DHT22;890;48.158;11.540;2023-04-24T08:50:21;11.10;92.70
1786;DHT22;890;48.158;11.540;2023-04-24T08:52:49;11.40;92.70
1786;DHT22;890;48.158;11.540;2023-04-24T08:55:16;11.30;92.20
1786;DHT22;890;48.158;11.540;2023-04-24T08:57:44;11.50;91.50
1786;DHT22;890;48.158;11.540;2023-04-24T09:00:11;11.60;90.80
1786;DHT22;890;48.158;11.540;2023-04-24T09:02:38;11.70;90.30
1786;DHT22;890;48.158;11.540;2023-04-24T09:05:06;11.80;88.70
1786;DHT22;890;48.158;11.540;2023-04-24T09:07:34;11.80;86.60
1786;DHT22;890;48.158;11.540;2023-04-24T09:10:02;11.90;86.40
1786;DHT22;890;48.158;11.540;2023-04-24T09:12:28;11.90;85.00
1786;DHT22;890;48.158;11.540;2023-04-24T09:14:54;11.70;84.50
1786;DHT22;890;48.158;11.540;2023-04-24T09:17:20;11.90;84.70
1786;DHT22;890;48.158;11.540;2023-04-24T09:19:48;12.00;84.70
1786;DHT22;890;48.158;11.540;2023-04-24T09:22:15;12.30;84.00
1786;DHT22;890;48.158;11.540;2023-04-24T09:24:40;12.20;83.10
1786;DHT22;890;48.158;11.540;2023-04-24T09:27:06;12.20;83.00
1786;DHT22;890;48.158;11.540;2023-04-24T09:29:32;12.30;82.70
1786;DHT22;890;48.158;11.540;2023-04-24T09:31:58;13.60;84.10
1786;DHT22;890;48.158;11.540;2023-04-24T09:34:26;12.60;82.70
1786;DHT22;890;48.158;11.540;2023-04-24T09:36:52;12.60;81.90
1786;DHT22;890;48.158;11.540;2023-04-24T09:39:18;13.80;82.50
1786;DHT22;890;48.158;11.540;2023-04-24T09:41:52;12.80;80.50
1786;DHT22;890;48.158;11.540;2023-04-24T09:44:36;12.80;79.50
1786;DHT22;890;48.158;11.540;2023-04-24T09:47:02;12.70;78.50
1786;DHT22;890;48.158;11.540;2023-04-24T09:49:29;12.90;79.40
1786;DHT22;890;48.158;11.540;2023-04-24T09:52:11;13.00;79.60
1786;DHT22;890;48.158;11.540;2023-04-24T09:54:37;13.10;78.90
1786;DHT22;890;48.158;11.540;2023-04-24T09:57:04;13.30;78.50
1786;DHT22;890;48.158;11.540;2023-04-24T09:59:30;13.30;77.60
1786;DHT22;890;48.158;11.540;2023-04-24T10:01:56;13.40;77.40
1786;DHT22;890;48.158;11.540;2023-04-24T10:04:28;13.50;77.70
1786;DHT22;890;48.158;11.540;2023-04-24T10:06:55;13.60;78.00
1786;DHT22;890;48.158;11.540;2023-04-24T10:09:26;13.80;78.70
1786;DHT22;890;48.158;11.540;2023-04-24T10:11:53;14.00;78.00
1786;DHT22;890;48.158;11.540;2023-04-24T10:14:24;14.30;78.20
1786;DHT22;890;48.158;11.540;2023-04-24T10:16:55;14.30;76.80
1786;DHT22;890;48.158;11.540;2023-04-24T10:19:25;14.10;76.00
1786;DHT22;890;48.158;11.540;2023-04-24T10:21:51;13.90;74.70
1786;DHT22;890;48.158;11.540;2023-04-24T10:24:18;13.80;74.20
1786;DHT22;890;48.158;11.540;2023-04-24T10:26:47;14.00;74.60
1786;DHT22;890;48.158;11.540;2023-04-24T10:29:18;14.00;74.00
1786;DHT22;890;48.158;11.540;2023-04-24T10:31:44;13.80;73.50
1786;DHT22;890;48.158;11.540;2023-04-24T10:34:15;13.90;73.90
1786;DHT22;890;48.158;11.540;2023-04-24T10:36:54;14.10;74.30
1786;DHT22;890;48.158;11.540;2023-04-24T10:39:21;14.30;74.90
1786;DHT22;890;48.158;11.540;2023-04-24T10:41:48;14.60;74.20
1786;DHT22;890;48.158;11.540;2023-04-24T10:44:15;14.40;72.20
1786;DHT22;890;48.158;11.540;2023-04-24T10:46:53;14.30;71.90
1786;DHT22;890;48.158;11.540;2023-04-24T10:49:30;14.10;71.40
1786;DHT22;890;48.158;11.540;2023-04-24T10:52:03;13.70;72.90
1786;DHT22;890;48.158;11.540;2023-04-24T10:54:36;13.00;75.20
1786;DHT22;890;48.158;11.540;2023-04-24T11:02:37;9.80;85.00
1786;DHT22;890;48.158;11.540;2023-04-24T11:05:03;9.80;86.10
1786;DHT22;890;48.158;11.540;2023-04-24T11:07:29;9.90;87.60
1786;DHT22;890;48.158;11.540;2023-04-24T11:09:58;10.20;87.70
1786;DHT22;890;48.158;11.540;2023-04-24T11:12:26;10.20;89.60
1786;DHT22;890;48.158;11.540;2023-04-24T11:20:01;11.10;93.60
1786;DHT22;890;48.158;11.540;2023-04-24T11:22:28;11.60;97.40
1786;DHT22;890;48.158;11.540;2023-04-24T11:24:56;13.60;99.90
1786;DHT22;890;48.158;11.540;2023-04-24T11:27:30;12.70;99.70
1786;DHT22;890;48.158;11.540;2023-04-24T11:32:40;13.20;99.30
1786;DHT22;890;48.158;11.540;2023-04-24T11:35:13;13.40;96.90
1786;DHT22;890;48.158;11.540;2023-04-24T11:37:40;13.20;93.80
1786;DHT22;890;48.158;11.540;2023-04-24T11:40:08;12.90;92.00
1786;DHT22;890;48.158;11.540;2023-04-24T11:42:41;12.60;90.90
1786;DHT22;890;48.158;11.540;2023-04-24T11:45:09;12.50;90.60
1786;DHT22;890;48.158;11.540;2023-04-24T11:47:35;12.70;91.70
1786;DHT22;890;48.158;11.540;2023-04-24T11:50:02;12.90;91.30
1786;DHT22;890;48.158;11.540;2023-04-24T11:52:29;13.50;90.40
1786;DHT22;890;48.158;11.540;2023-04-24T11:54:55;13.90;90.50
1786;DHT22;890;48.158;11.540;2023-04-24T11:57:22;14.20;85.10
1786;DHT22;890;48.158;11.540;2023-04-24T11:59:49;14.30;86.70
1786;DHT22;890;48.158;11.540;2023-04-24T12:02:25;14.50;84.80
1786;DHT22;890;48.158;11.540;2023-04-24T12:04:54;14.60;81.90
1786;DHT22;890;48.158;11.540;2023-04-24T12:07:20;14.90;80.80
1786;DHT22;890;48.158;11.540;2023-04-24T12:09:49;14.60;78.60
1786;DHT22;890;48.158;11.540;2023-04-24T12:12:18;14.30;76.60
1786;DHT22;890;48.158;11.540;2023-04-24T12:17:09;14.10;75.40
1786;DHT22;890;48.158;11.540;2023-04-24T12:19:35;14.10;75.90
1786;DHT22;890;48.158;11.540;2023-04-24T12:22:03;14.30;76.40
1786;DHT22;890;48.158;11.540;2023-04-24T12:24:29;14.20;74.00
1786;DHT22;890;48.158;11.540;2023-04-24T12:26:56;14.30;72.90
1786;DHT22;890;48.158;11.540;2023-04-24T12:29:22;14.50;72.90
1786;DHT22;890;48.158;11.540;2023-04-24T12:31:49;14.40;72.10
1786;DHT22;890;48.158;11.540;2023-04-24T12:34:22;14.50;71.80
1786;DHT22;890;48.158;11.540;2023-04-24T12:36:48;14.40;70.70
1786;DHT22;890;48.158;11.540;2023-04-24T12:39:18;15.40;71.10
1786;DHT22;890;48.158;11.540;2023-04-24T12:42:11;14.60;68.80
1786;DHT22;890;48.158;11.540;2023-04-24T12:44:37;15.70;68.40
1786;DHT22;890;48.158;11.540;2023-04-24T12:47:03;15.00;67.60
1786;DHT22;890;48.158;11.540;2023-04-24T12:49:32;15.10;65.50
1786;DHT22;890;48.158;11.540;2023-04-24T12:51:57;15.20;64.40
1786;DHT22;890;48.158;11.540;2023-04-24T12:54:23;15.50;63.90
1786;DHT22;890;48.158;11.540;2023-04-24T12:56:49;15.20;63.10
1786;DHT22;890;48.158;11.540;2023-04-24T12:59:14;15.30;63.50
1786;DHT22;890;48.158;11.540;2023-04-24T13:01:41;15.40;63.10
1786;DHT22;890;48.158;11.540;2023-04-24T13:04:06;15.50;62.20
1786;DHT22;890;48.158;11.540;2023-04-24T13:06:32;15.50;61.20
1786;DHT22;890;48.158;11.540;2023-04-24T13:08:58;15.30;59.80
1786;DHT22;890;48.158;11.540;2023-04-24T13:11:24;15.00;59.80
1786;DHT22;890;48.158;11.540;2023-04-24T13:13:50;14.60;60.30
1786;DHT22;890;48.158;11.540;2023-04-24T13:16:15;14.20;61.50
1786;DHT22;890;48.158;11.540;2023-04-24T13:18:41;14.10;62.40
1786;DHT22;890;48.158;11.540;2023-04-24T13:21:07;14.10;63.30
1786;DHT22;890;48.158;11.540;2023-04-24T13:23:32;14.80;64.30
1786;DHT22;890;48.158;11.540;2023-04-24T13:25:58;14.30;64.50
1786;DHT22;890;48.158;11.540;2023-04-24T13:28:24;14.50;63.60
1786;DHT22;890;48.158;11.540;2023-04-24T13:30:51;14.50;62.60
1786;DHT22;890;48.158;11.540;2023-04-24T13:33:16;15.10;62.70
1786;DHT22;890;48.158;11.540;2023-04-24T13:35:42;14.70;61.90
1786;DHT22;890;48.158;11.540;2023-04-24T13:38:07;14.90;61.40
1786;DHT22;890;48.158;11.540;2023-04-24T13:40:33;15.00;60.70
1786;DHT22;890;48.158;11.540;2023-04-24T13:42:59;15.10;60.00
1786;DHT22;890;48.158;11.540;2023-04-24T13:45:24;15.20;59.90
1786;DHT22;890;48.158;11.540;2023-04-24T13:47:50;15.20;59.30
1786;DHT22;890;48.158;11.540;2023-04-24T13:50:16;15.20;58.80
1786;DHT22;890;48.158;11.540;2023-04-24T13:52:41;15.10;57.90
1786;DHT22;890;48.158;11.540;2023-04-24T13:55:07;15.10;57.70
1786;DHT22;890;48.158;11.540;2023-04-24T13:57:33;15.10;57.30
1786;DHT22;890;48.158;11.540;2023-04-24T13:59:59;16.20;57.70
1786;DHT22;890;48.158;11.540;2023-04-24T14:02:29;15.10;56.80
1786;DHT22;890;48.158;11.540;2023-04-24T14:04:55;15.10;56.00
1786;DHT22;890;48.158;11.540;2023-04-24T14:07:21;15.10;55.40
1786;DHT22;890;48.158;11.540;2023-04-24T14:09:46;15.10;55.10
1786;DHT22;890;48.158;11.540;2023-04-24T14:12:12;15.10;55.40
1786;DHT22;890;48.158;11.540;2023-04-24T14:14:39;14.90;55.90
1786;DHT22;890;48.158;11.540;2023-04-24T14:17:05;14.90;56.60
1786;DHT22;890;48.158;11.540;2023-04-24T14:19:31;15.00;57.10
1786;DHT22;890;48.158;11.540;2023-04-24T14:21:56;15.20;57.20
1786;DHT22;890;48.158;11.540;2023-04-24T14:24:23;15.30;57.20
1786;DHT22;890;48.158;11.540;2023-04-24T14:26:49;15.20;56.30
1786;DHT22;890;48.158;11.540;2023-04-24T14:29:15;15.10;56.20
1786;DHT22;890;48.158;11.540;2023-04-24T14:31:42;15.10;55.70
1786;DHT22;890;48.158;11.540;2023-04-24T14:34:08;14.90;55.40
1786;DHT22;890;48.158;11.540;2023-04-24T14:36:34;15.00;55.60
1786;DHT22;890;48.158;11.540;2023-04-24T14:39:00;15.20;55.60
1786;DHT22;890;48.158;11.540;2023-04-24T14:41:30;15.00;55.40
1786;DHT22;890;48.158;11.540;2023-04-24T14:43:56;15.00;55.20
1786;DHT22;890;48.158;11.540;2023-04-24T14:46:22;14.90;54.40
1786;DHT22;890;48.158;11.540;2023-04-24T14:48:48;14.80;54.50
1786;DHT22;890;48.158;11.540;2023-04-24T14:51:14;14.80;54.40
1786;DHT22;890;48.158;11.540;2023-04-24T14:53:40;14.70;54.60
1786;DHT22;890;48.158;11.540;2023-04-24T14:56:06;14.80;54.50
1786;DHT22;890;48.158;11.540;2023-04-24T14:58:32;14.70;53.80
1786;DHT22;890;48.158;11.540;2023-04-24T15:00:58;14.80;53.70
1786;DHT22;890;48.158;11.540;2023-04-24T15:03:23;15.00;53.60
1786;DHT22;890;48.158;11.540;2023-04-24T15:05:50;14.70;53.30
1786;DHT22;890;48.158;11.540;2023-04-24T15:08:16;14.80;53.40
1786;DHT22;890;48.158;11.540;2023-04-24T15:10:42;15.50;53.90
1786;DHT22;890;48.158;11.540;2023-04-24T15:13:07;15.10;53.10
1786;DHT22;890;48.158;11.540;2023-04-24T15:15:33;15.20;52.60
1786;DHT22;890;48.158;11.540;2023-04-24T15:17:58;15.80;52.70
1786;DHT22;890;48.158;11.540;2023-04-24T15:20:24;15.10;52.30
1786;DHT22;890;48.158;11.540;2023-04-24T15:22:50;15.20;52.40
1786;DHT22;890;48.158;11.540;2023-04-24T15:25:15;15.30;51.90
1786;DHT22;890;48.158;11.540;2023-04-24T15:27:42;15.20;51.90
1786;DHT22;890;48.158;11.540;2023-04-24T15:30:09;15.70;52.40
1786;DHT22;890;48.158;11.540;2023-04-24T15:32:36;15.30;52.10
1786;DHT22;890;48.158;11.540;2023-04-24T15:35:01;16.20;52.50
1786;DHT22;890;48.158;11.540;2023-04-24T15:37:27;15.40;51.40
1786;DHT22;890;48.158;11.540;2023-04-24T15:39:53;15.30;50.70
1786;DHT22;890;48.158;11.540;2023-04-24T15:42:18;15.10;50.10
1786;DHT22;890;48.158;11.540;2023-04-24T15:44:44;16.30;51.10
1786;DHT22;890;48.158;11.540;2023-04-24T15:47:09;15.00;49.90
1786;DHT22;890;48.158;11.540;2023-04-24T15:49:35;15.00;50.10
1786;DHT22;890;48.158;11.540;2023-04-24T15:52:01;15.10;49.60
1786;DHT22;890;48.158;11.540;2023-04-24T15:54:27;15.10;49.70
1786;DHT22;890;48.158;11.540;2023-04-24T15:56:52;15.00;49.50
1786;DHT22;890;48.158;11.540;2023-04-24T15:59:18;14.80;49.50
1786;DHT22;890;48.158;11.540;2023-04-24T16:01:44;14.60;49.40
1786;DHT22;890;48.158;11.540;2023-04-24T16:04:09;15.00;49.30
1786;DHT22;890;48.158;11.540;2023-04-24T16:06:35;14.50;48.70
1786;DHT22;890;48.158;11.540;2023-04-24T16:09:01;14.40;48.70
1786;DHT22;890;48.158;11.540;2023-04-24T16:11:26;14.60;49.00
1786;DHT22;890;48.158;11.540;2023-04-24T16:13:52;14.60;48.90